sensor_id;sensor_type;location;lat;lon;timestamp;pressure;altitude;pressure_sealevel;temperature;humidity
19112;BME280;9688;51.906;8.376;2023-04-05T00:02:41;101618.44;;;4.54;58.16
19112;BME280;9688;51.906;8.376;2023-04-05T00:05:29;101617.56;;;4.50;57.92
19112;BME280;9688;51.906;8.376;2023-04-05T00:08:17;101611.44;;;4.48;58.61
19112;BME280;9688;51.906;8.376;2023-04-05T00:11:07;101603.59;;;4.42;59.30
19112;BME280;9688;51.906;8.376;2023-04-05T00:13:53;101603.56;;;4.37;59.87
19112;BME280;9688;51.906;8.376;2023-04-05T00:16:38;101600.09;;;4.35;58.97
19112;BME280;9688;51.906;8.376;2023-04-05T00:19:24;101592.22;;;4.34;59.35
19112;BME280;9688;51.906;8.376;2023-04-05T00:22:12;101597.44;;;4.32;59.51
19112;BME280;9688;51.906;8.376;2023-04-05T00:24:57;101601.81;;;4.32;59.35
19112;BME280;9688;51.906;8.376;2023-04-05T00:27:43;101593.09;;;4.28;60.36
19112;BME280;9688;51.906;8.376;2023-04-05T00:30:28;101599.19;;;4.25;60.23
19112;BME280;9688;51.906;8.376;2023-04-05T00:33:14;101600.91;;;4.23;60.81
19112;BME280;9688;51.906;8.376;2023-04-05T00:36:10;101597.41;;;4.20;60.39
19112;BME280;9688;51.906;8.376;2023-04-05T00:38:57;101595.66;;;4.17;60.59
19112;BME280;9688;51.906;8.376;2023-04-05T00:41:42;101589.56;;;4.14;61.21
19112;BME280;9688;51.906;8.376;2023-04-05T00:44:28;101592.16;;;4.08;61.13
19112;BME280;9688;51.906;8.376;2023-04-05T00:47:17;101592.09;;;4.05;61.46
19112;BME280;9688;51.906;8.376;2023-04-05T00:50:07;101592.13;;;4.03;61.56
19112;BME280;9688;51.906;8.376;2023-04-05T00:52:54;101588.63;;;3.99;61.85
19112;BME280;9688;51.906;8.376;2023-04-05T00:55:42;101587.72;;;3.94;62.13
19112;BME280;9688;51.906;8.376;2023-04-05T00:58:28;101579.84;;;3.90;62.31
19112;BME280;9688;51.906;8.376;2023-04-05T01:01:17;101576.34;;;3.86;61.94
19112;BME280;9688;51.906;8.376;2023-04-05T01:04:04;101578.09;;;3.84;62.13
19112;BME280;9688;51.906;8.376;2023-04-05T01:07:01;101572.81;;;3.79;63.27
19112;BME280;9688;51.906;8.376;2023-04-05T01:09:55;101575.44;;;3.78;63.30
19112;BME280;9688;51.906;8.376;2023-04-05T01:12:42;101577.19;;;3.74;63.24
19112;BME280;9688;51.906;8.376;2023-04-05T01:15:31;101573.66;;;3.72;63.00
19112;BME280;9688;51.906;8.376;2023-04-05T01:18:17;101570.16;;;3.67;64.03
19112;BME280;9688;51.906;8.376;2023-04-05T01:21:23;101568.38;;;3.58;63.79
19112;BME280;9688;51.906;8.376;2023-04-05T01:24:28;101569.22;;;3.53;63.97
19112;BME280;9688;51.906;8.376;2023-04-05T01:27:20;101566.59;;;3.50;63.78
19112;BME280;9688;51.906;8.376;2023-04-05T01:30:15;101573.50;;;3.46;64.11
19112;BME280;9688;51.906;8.376;2023-04-05T01:33:08;101562.16;;;3.43;63.96
19112;BME280;9688;51.906;8.376;2023-04-05T01:36:07;101561.28;;;3.41;64.51
19112;BME280;9688;51.906;8.376;2023-04-05T01:38:56;101557.78;;;3.37;64.57
19112;BME280;9688;51.906;8.376;2023-04-05T01:41:42;101553.41;;;3.34;64.66
19112;BME280;9688;51.906;8.376;2023-04-05T01:44:28;101550.78;;;3.30;64.63
19112;BME280;9688;51.906;8.376;2023-04-05T01:47:15;101555.97;;;3.27;64.50
19112;BME280;9688;51.906;8.376;2023-04-05T01:50:05;101548.97;;;3.23;65.35
19112;BME280;9688;51.906;8.376;2023-04-05T01:52:50;101542.88;;;3.21;65.13
19112;BME280;9688;51.906;8.376;2023-04-05T01:55:36;101548.06;;;3.18;65.00
19112;BME280;9688;51.906;8.376;2023-04-05T01:58:22;101541.97;;;3.17;65.31
19112;BME280;9688;51.906;8.376;2023-04-05T02:01:07;101541.94;;;3.16;65.40
19112;BME280;9688;51.906;8.376;2023-04-05T02:03:55;101526.28;;;3.14;65.06
19112;BME280;9688;51.906;8.376;2023-04-05T02:06:40;101526.25;;;3.12;65.24
19112;BME280;9688;51.906;8.376;2023-04-05T02:09:26;101528.00;;;3.10;64.49
19112;BME280;9688;51.906;8.376;2023-04-05T02:12:11;101528.84;;;3.09;65.19
19112;BME280;9688;51.906;8.376;2023-04-05T02:14:57;101524.47;;;3.07;64.81
19112;BME280;9688;51.906;8.376;2023-04-05T02:17:42;101531.44;;;3.06;64.77
19112;BME280;9688;51.906;8.376;2023-04-05T02:20:31;101523.63;;;3.05;64.62
19112;BME280;9688;51.906;8.376;2023-04-05T02:23:18;101526.22;;;3.05;65.28
19112;BME280;9688;51.906;8.376;2023-04-05T02:26:04;101529.72;;;3.05;64.97
19112;BME280;9688;51.906;8.376;2023-04-05T02:28:49;101527.97;;;3.06;64.93
19112;BME280;9688;51.906;8.376;2023-04-05T02:31:35;101529.69;;;3.04;64.78
19112;BME280;9688;51.906;8.376;2023-04-05T02:34:20;101528.78;;;3.02;65.20
19112;BME280;9688;51.906;8.376;2023-04-05T02:37:08;101531.41;;;3.02;65.10
19112;BME280;9688;51.906;8.376;2023-04-05T02:39:53;101524.44;;;3.01;65.91
19112;BME280;9688;51.906;8.376;2023-04-05T02:42:39;101525.31;;;3.00;65.86
19112;BME280;9688;51.906;8.376;2023-04-05T02:45:24;101527.91;;;2.98;66.20
19112;BME280;9688;51.906;8.376;2023-04-05T02:48:10;101528.78;;;2.97;66.24
19112;BME280;9688;51.906;8.376;2023-04-05T02:50:56;101527.00;;;2.96;65.99
19112;BME280;9688;51.906;8.376;2023-04-05T02:53:43;101520.03;;;2.94;66.50
19112;BME280;9688;51.906;8.376;2023-04-05T02:56:28;101529.59;;;2.93;66.37
19112;BME280;9688;51.906;8.376;2023-04-05T02:59:14;101525.25;;;2.89;67.08
19112;BME280;9688;51.906;8.376;2023-04-05T03:02:04;101520.00;;;2.86;66.67
19112;BME280;9688;51.906;8.376;2023-04-05T03:04:50;101521.69;;;2.82;67.52
19112;BME280;9688;51.906;8.376;2023-04-05T03:07:36;101521.66;;;2.79;67.73
19112;BME280;9688;51.906;8.376;2023-04-05T03:10:27;101520.75;;;2.74;67.88
19112;BME280;9688;51.906;8.376;2023-04-05T03:13:16;101511.19;;;2.73;67.66
19112;BME280;9688;51.906;8.376;2023-04-05T03:16:02;101519.84;;;2.71;68.08
19112;BME280;9688;51.906;8.376;2023-04-05T03:18:48;101516.38;;;2.70;67.62
19112;BME280;9688;51.906;8.376;2023-04-05T03:21:33;101517.25;;;2.71;67.82
19112;BME280;9688;51.906;8.376;2023-04-05T03:24:19;101512.88;;;2.66;67.77
19112;BME280;9688;51.906;8.376;2023-04-05T03:27:06;101511.97;;;2.64;68.30
19112;BME280;9688;51.906;8.376;2023-04-05T03:29:52;101515.47;;;2.65;68.05
19112;BME280;9688;51.906;8.376;2023-04-05T03:32:40;101514.59;;;2.64;68.16
19112;BME280;9688;51.906;8.376;2023-04-05T03:35:26;101511.13;;;2.64;68.25
19112;BME280;9688;51.906;8.376;2023-04-05T03:38:11;101518.94;;;2.65;68.06
19112;BME280;9688;51.906;8.376;2023-04-05T03:40:57;101512.84;;;2.63;68.23
19112;BME280;9688;51.906;8.376;2023-04-05T03:43:44;101503.25;;;2.62;68.41
19112;BME280;9688;51.906;8.376;2023-04-05T03:46:31;101510.19;;;2.60;68.20
19112;BME280;9688;51.906;8.376;2023-04-05T03:49:17;101518.91;;;2.59;68.56
19112;BME280;9688;51.906;8.376;2023-04-05T03:52:03;101505.84;;;2.59;68.18
19112;BME280;9688;51.906;8.376;2023-04-05T03:54:49;101502.38;;;2.59;68.42
19112;BME280;9688;51.906;8.376;2023-04-05T03:57:36;101498.88;;;2.58;68.52
19112;BME280;9688;51.906;8.376;2023-04-05T04:00:23;101497.13;;;2.56;68.61
19112;BME280;9688;51.906;8.376;2023-04-05T04:03:09;101495.38;;;2.56;68.91
19112;BME280;9688;51.906;8.376;2023-04-05T04:05:55;101496.22;;;2.54;69.08
19112;BME280;9688;51.906;8.376;2023-04-05T04:08:41;101496.19;;;2.52;69.34
19112;BME280;9688;51.906;8.376;2023-04-05T04:11:26;101499.66;;;2.48;69.41
19112;BME280;9688;51.906;8.376;2023-04-05T04:14:12;101495.28;;;2.45;69.63
19112;BME280;9688;51.906;8.376;2023-04-05T04:16:59;101491.78;;;2.43;69.49
19112;BME280;9688;51.906;8.376;2023-04-05T04:19:45;101494.38;;;2.42;69.62
19112;BME280;9688;51.906;8.376;2023-04-05T04:22:31;101489.16;;;2.39;69.82
19112;BME280;9688;51.906;8.376;2023-04-05T04:25:17;101496.09;;;2.38;69.94
19112;BME280;9688;51.906;8.376;2023-04-05T04:28:03;101493.47;;;2.37;69.99
19112;BME280;9688;51.906;8.376;2023-04-05T04:30:50;101500.44;;;2.36;70.03
19112;BME280;9688;51.906;8.376;2023-04-05T04:33:37;101494.34;;;2.36;70.00
19112;BME280;9688;51.906;8.376;2023-04-05T04:36:23;101499.56;;;2.36;69.87
19112;BME280;9688;51.906;8.376;2023-04-05T04:39:18;101500.44;;;2.36;69.96
19112;BME280;9688;51.906;8.376;2023-04-05T04:42:09;101497.81;;;2.38;69.98
19112;BME280;9688;51.906;8.376;2023-04-05T04:44:56;101494.38;;;2.39;69.90
19112;BME280;9688;51.906;8.376;2023-04-05T04:47:47;101493.53;;;2.41;69.91
19112;BME280;9688;51.906;8.376;2023-04-05T04:50:34;101491.75;;;2.40;69.99
19112;BME280;9688;51.906;8.376;2023-04-05T04:53:21;101492.66;;;2.42;69.87
19112;BME280;9688;51.906;8.376;2023-04-05T04:56:07;101487.47;;;2.44;69.88
19112;BME280;9688;51.906;8.376;2023-04-05T04:58:54;101491.78;;;2.43;70.45
19112;BME280;9688;51.906;8.376;2023-04-05T05:01:43;101493.53;;;2.43;70.21
19112;BME280;9688;51.906;8.376;2023-04-05T05:04:29;101501.34;;;2.41;70.24
19112;BME280;9688;51.906;8.376;2023-04-05T05:07:16;101501.34;;;2.41;70.32
19112;BME280;9688;51.906;8.376;2023-04-05T05:10:05;101509.19;;;2.43;70.67
19112;BME280;9688;51.906;8.376;2023-04-05T05:12:52;101505.72;;;2.44;70.14
19112;BME280;9688;51.906;8.376;2023-04-05T05:15:41;101499.66;;;2.48;70.31
19112;BME280;9688;51.906;8.376;2023-04-05T05:18:28;101505.78;;;2.53;70.00
19112;BME280;9688;51.906;8.376;2023-04-05T05:21:16;101504.06;;;2.57;69.93
19112;BME280;9688;51.906;8.376;2023-04-05T05:24:05;101499.78;;;2.62;70.04
19112;BME280;9688;51.906;8.376;2023-04-05T05:26:53;101501.59;;;2.72;69.80
19112;BME280;9688;51.906;8.376;2023-04-05T05:29:39;101502.59;;;2.86;69.62
19112;BME280;9688;51.906;8.376;2023-04-05T05:32:25;101508.72;;;2.96;69.57
19112;BME280;9688;51.906;8.376;2023-04-05T05:35:10;101500.13;;;3.05;69.12
19112;BME280;9688;51.906;8.376;2023-04-05T05:37:56;101499.28;;;3.12;69.47
19112;BME280;9688;51.906;8.376;2023-04-05T05:40:43;101492.34;;;3.19;68.78
19112;BME280;9688;51.906;8.376;2023-04-05T05:43:29;101494.09;;;3.21;68.82
19112;BME280;9688;51.906;8.376;2023-04-05T05:46:14;101494.13;;;3.23;68.53
19112;BME280;9688;51.906;8.376;2023-04-05T05:49:00;101498.47;;;3.27;68.64
19112;BME280;9688;51.906;8.376;2023-04-05T05:51:46;101495.91;;;3.34;69.16
19112;BME280;9688;51.906;8.376;2023-04-05T05:54:32;101502.06;;;3.43;68.70
19112;BME280;9688;51.906;8.376;2023-04-05T05:57:19;101498.59;;;3.45;68.75
19112;BME280;9688;51.906;8.376;2023-04-05T06:00:06;101501.25;;;3.56;68.04
19112;BME280;9688;51.906;8.376;2023-04-05T06:02:54;101503.06;;;3.66;67.94
19112;BME280;9688;51.906;8.376;2023-04-05T06:05:49;101498.69;;;3.68;67.78
19112;BME280;9688;51.906;8.376;2023-04-05T06:08:35;101499.59;;;3.75;68.02
19112;BME280;9688;51.906;8.376;2023-04-05T06:11:22;101485.69;;;3.84;67.98
19112;BME280;9688;51.906;8.376;2023-04-05T06:14:10;101489.16;;;3.90;67.65
19112;BME280;9688;51.906;8.376;2023-04-05T06:16:55;101489.25;;;4.13;67.95
19112;BME280;9688;51.906;8.376;2023-04-05T06:19:41;101487.53;;;4.47;67.96
19112;BME280;9688;51.906;8.376;2023-04-05T06:22:32;101492.78;;;4.78;66.69
19112;BME280;9688;51.906;8.376;2023-04-05T06:25:20;101490.13;;;4.95;66.59
19112;BME280;9688;51.906;8.376;2023-04-05T06:28:06;101489.25;;;5.01;64.99
19112;BME280;9688;51.906;8.376;2023-04-05T06:30:54;101491.03;;;4.97;65.12
19112;BME280;9688;51.906;8.376;2023-04-05T06:33:40;101493.63;;;4.96;64.39
19112;BME280;9688;51.906;8.376;2023-04-05T06:36:26;101490.97;;;5.09;65.27
19112;BME280;9688;51.906;8.376;2023-04-05T06:39:11;101492.69;;;5.35;63.65
19112;BME280;9688;51.906;8.376;2023-04-05T06:41:57;101496.09;;;5.63;63.80
19112;BME280;9688;51.906;8.376;2023-04-05T06:44:43;101495.97;;;5.89;63.55
19112;BME280;9688;51.906;8.376;2023-04-05T06:47:33;101503.81;;;6.00;62.03
19112;BME280;9688;51.906;8.376;2023-04-05T06:50:19;101502.88;;;6.09;62.65
19112;BME280;9688;51.906;8.376;2023-04-05T06:53:05;101502.00;;;6.11;62.19
19112;BME280;9688;51.906;8.376;2023-04-05T06:55:51;101497.63;;;6.12;61.89
19112;BME280;9688;51.906;8.376;2023-04-05T06:58:37;101494.13;;;6.16;61.64
19112;BME280;9688;51.906;8.376;2023-04-05T07:01:24;101486.91;;;6.42;60.33
19112;BME280;9688;51.906;8.376;2023-04-05T07:04:12;101490.13;;;6.80;59.28
19112;BME280;9688;51.906;8.376;2023-04-05T07:06:59;101482.72;;;7.20;58.78
19112;BME280;9688;51.906;8.376;2023-04-05T07:09:46;101482.50;;;7.40;58.59
19112;BME280;9688;51.906;8.376;2023-04-05T07:12:33;101478.84;;;7.52;57.96
19112;BME280;9688;51.906;8.376;2023-04-05T07:15:22;101480.53;;;7.57;57.58
19112;BME280;9688;51.906;8.376;2023-04-05T07:18:09;101476.94;;;7.66;57.47
19112;BME280;9688;51.906;8.376;2023-04-05T07:20:57;101468.03;;;7.76;56.76
19112;BME280;9688;51.906;8.376;2023-04-05T07:23:45;101468.63;;;7.98;56.83
19112;BME280;9688;51.906;8.376;2023-04-05T07:26:31;101454.94;;;8.31;55.77
19112;BME280;9688;51.906;8.376;2023-04-05T07:29:19;101456.59;;;8.39;55.50
19112;BME280;9688;51.906;8.376;2023-04-05T07:32:04;101458.25;;;8.48;54.74
19112;BME280;9688;51.906;8.376;2023-04-05T07:34:52;101464.50;;;8.41;55.11
19112;BME280;9688;51.906;8.376;2023-04-05T07:37:42;101462.94;;;8.24;55.31
19112;BME280;9688;51.906;8.376;2023-04-05T07:40:28;101462.97;;;8.23;55.11
19112;BME280;9688;51.906;8.376;2023-04-05T07:43:17;101461.84;;;8.41;54.60
19112;BME280;9688;51.906;8.376;2023-04-05T07:46:03;101452.59;;;8.69;54.63
19112;BME280;9688;51.906;8.376;2023-04-05T07:48:49;101463.41;;;9.04;53.87
19112;BME280;9688;51.906;8.376;2023-04-05T07:51:35;101459.97;;;9.45;53.32
19112;BME280;9688;51.906;8.376;2023-04-05T07:54:23;101461.84;;;9.82;51.93
19112;BME280;9688;51.906;8.376;2023-04-05T07:57:09;101463.31;;;9.95;51.76
19112;BME280;9688;51.906;8.376;2023-04-05T07:59:54;101456.88;;;10.07;50.52
19112;BME280;9688;51.906;8.376;2023-04-05T08:02:40;101454.06;;;10.15;51.17
19112;BME280;9688;51.906;8.376;2023-04-05T08:05:26;101467.19;;;10.18;49.88
19112;BME280;9688;51.906;8.376;2023-04-05T08:08:12;101464.66;;;10.13;50.38
19112;BME280;9688;51.906;8.376;2023-04-05T08:11:01;101467.53;;;10.02;50.55
19112;BME280;9688;51.906;8.376;2023-04-05T08:13:47;101464.25;;;9.91;51.06
19112;BME280;9688;51.906;8.376;2023-04-05T08:16:33;101476.63;;;9.89;51.09
19112;BME280;9688;51.906;8.376;2023-04-05T08:19:18;101467.88;;;9.87;51.03
19112;BME280;9688;51.906;8.376;2023-04-05T08:22:04;101451.97;;;9.90;50.31
19112;BME280;9688;51.906;8.376;2023-04-05T08:24:50;101461.56;;;9.94;49.97
19112;BME280;9688;51.906;8.376;2023-04-05T08:27:37;101450.81;;;10.02;50.53
19112;BME280;9688;51.906;8.376;2023-04-05T08:30:22;101458.44;;;10.16;49.55
19112;BME280;9688;51.906;8.376;2023-04-05T08:33:08;101454.59;;;10.31;48.93
19112;BME280;9688;51.906;8.376;2023-04-05T08:35:53;101441.34;;;10.32;49.52
19112;BME280;9688;51.906;8.376;2023-04-05T08:38:39;101450.25;;;10.26;50.13
19112;BME280;9688;51.906;8.376;2023-04-05T08:41:25;101440.63;;;10.24;49.22
19112;BME280;9688;51.906;8.376;2023-04-05T08:44:22;101447.09;;;10.11;48.84
19112;BME280;9688;51.906;8.376;2023-04-05T08:47:11;101443.56;;;10.12;48.85
19112;BME280;9688;51.906;8.376;2023-04-05T08:50:08;101450.75;;;10.05;48.70
19112;BME280;9688;51.906;8.376;2023-04-05T08:52:54;101452.28;;;10.15;48.64
19112;BME280;9688;51.906;8.376;2023-04-05T08:55:40;101442.44;;;10.22;48.11
19112;BME280;9688;51.906;8.376;2023-04-05T08:58:27;101453.06;;;10.20;48.82
19112;BME280;9688;51.906;8.376;2023-04-05T09:01:14;101449.38;;;10.27;49.02
19112;BME280;9688;51.906;8.376;2023-04-05T09:04:05;101452.13;;;10.21;48.47
19112;BME280;9688;51.906;8.376;2023-04-05T09:06:51;101451.38;;;10.16;49.21
19112;BME280;9688;51.906;8.376;2023-04-05T09:09:36;101448.91;;;10.09;49.21
19112;BME280;9688;51.906;8.376;2023-04-05T09:12:25;101451.44;;;10.13;48.17
19112;BME280;9688;51.906;8.376;2023-04-05T09:15:13;101443.44;;;10.16;48.46
19112;BME280;9688;51.906;8.376;2023-04-05T09:18:01;101449.59;;;10.17;49.18
19112;BME280;9688;51.906;8.376;2023-04-05T09:20:47;101440.59;;;10.27;48.98
19112;BME280;9688;51.906;8.376;2023-04-05T09:23:35;101444.94;;;10.28;48.62
19112;BME280;9688;51.906;8.376;2023-04-05T09:26:22;101437.91;;;10.29;48.84
19112;BME280;9688;51.906;8.376;2023-04-05T09:29:28;101438.72;;;10.31;48.51
19112;BME280;9688;51.906;8.376;2023-04-05T09:32:17;101433.25;;;10.38;48.34
19112;BME280;9688;51.906;8.376;2023-04-05T09:35:07;101427.03;;;10.41;47.75
19112;BME280;9688;51.906;8.376;2023-04-05T09:38:03;101415.53;;;10.43;48.57
19112;BME280;9688;51.906;8.376;2023-04-05T09:40:50;101419.00;;;10.45;48.11
19112;BME280;9688;51.906;8.376;2023-04-05T09:43:38;101430.53;;;10.41;47.07
19112;BME280;9688;51.906;8.376;2023-04-05T09:46:31;101414.81;;;10.37;46.88
19112;BME280;9688;51.906;8.376;2023-04-05T09:49:31;101418.41;;;10.33;46.38
19112;BME280;9688;51.906;8.376;2023-04-05T09:52:20;101415.63;;;10.39;46.85
19112;BME280;9688;51.906;8.376;2023-04-05T09:55:10;101408.44;;;10.44;45.85
19112;BME280;9688;51.906;8.376;2023-04-05T09:57:57;101414.59;;;10.44;45.68
19112;BME280;9688;51.906;8.376;2023-04-05T10:00:48;101420.81;;;10.42;45.76
19112;BME280;9688;51.906;8.376;2023-04-05T10:03:45;101416.31;;;10.47;45.37
19112;BME280;9688;51.906;8.376;2023-04-05T10:06:35;101411.50;;;10.63;45.04
19112;BME280;9688;51.906;8.376;2023-04-05T10:09:23;101413.88;;;10.74;44.50
19112;BME280;9688;51.906;8.376;2023-04-05T10:12:11;101408.41;;;10.80;44.91
19112;BME280;9688;51.906;8.376;2023-04-05T10:14:58;101402.13;;;10.84;44.80
19112;BME280;9688;51.906;8.376;2023-04-05T10:17:50;101398.22;;;10.97;44.65
19112;BME280;9688;51.906;8.376;2023-04-05T10:20:43;101406.63;;;11.13;43.66
19112;BME280;9688;51.906;8.376;2023-04-05T10:23:34;101399.53;;;11.13;43.42
19112;BME280;9688;51.906;8.376;2023-04-05T10:26:32;101385.41;;;11.14;44.02
19112;BME280;9688;51.906;8.376;2023-04-05T10:29:26;101394.22;;;11.15;43.86
19112;BME280;9688;51.906;8.376;2023-04-05T10:32:25;101381.06;;;11.12;42.99
19112;BME280;9688;51.906;8.376;2023-04-05T10:35:16;101384.69;;;11.09;43.66
19112;BME280;9688;51.906;8.376;2023-04-05T10:38:12;101390.56;;;11.19;42.94
19112;BME280;9688;51.906;8.376;2023-04-05T10:41:10;101386.09;;;11.21;43.50
19112;BME280;9688;51.906;8.376;2023-04-05T10:44:01;101394.47;;;11.06;42.91
19112;BME280;9688;51.906;8.376;2023-04-05T10:46:49;101395.56;;;10.99;42.53
19112;BME280;9688;51.906;8.376;2023-04-05T10:49:38;101390.19;;;11.02;43.06
19112;BME280;9688;51.906;8.376;2023-04-05T10:52:27;101391.50;;;11.16;41.25
19112;BME280;9688;51.906;8.376;2023-04-05T10:55:15;101389.81;;;11.14;41.65
19112;BME280;9688;51.906;8.376;2023-04-05T10:58:01;101380.97;;;11.15;41.66
19112;BME280;9688;51.906;8.376;2023-04-05T11:00:51;101384.06;;;11.31;41.67
19112;BME280;9688;51.906;8.376;2023-04-05T11:03:51;101382.09;;;11.37;41.36
19112;BME280;9688;51.906;8.376;2023-04-05T11:06:38;101374.44;;;11.28;41.00
19112;BME280;9688;51.906;8.376;2023-04-05T11:09:25;101377.81;;;11.33;41.62
19112;BME280;9688;51.906;8.376;2023-04-05T11:12:11;101373.38;;;11.34;41.59
19112;BME280;9688;51.906;8.376;2023-04-05T11:15:30;101370.47;;;11.42;42.11
19112;BME280;9688;51.906;8.376;2023-04-05T11:18:20;101355.94;;;11.56;40.83
19112;BME280;9688;51.906;8.376;2023-04-05T11:21:06;101366.97;;;11.71;41.46
19112;BME280;9688;51.906;8.376;2023-04-05T11:24:00;101363.38;;;11.72;41.22
19112;BME280;9688;51.906;8.376;2023-04-05T11:26:54;101359.16;;;11.66;41.09
19112;BME280;9688;51.906;8.376;2023-04-05T11:29:47;101355.22;;;11.51;40.58
19112;BME280;9688;51.906;8.376;2023-04-05T11:32:41;101354.06;;;11.60;40.99
19112;BME280;9688;51.906;8.376;2023-04-05T11:35:33;101352.66;;;11.48;41.16
19112;BME280;9688;51.906;8.376;2023-04-05T11:38:20;101351.41;;;11.30;40.89
19112;BME280;9688;51.906;8.376;2023-04-05T11:41:12;101346.09;;;11.32;41.48
19112;BME280;9688;51.906;8.376;2023-04-05T11:44:04;101350.53;;;11.31;41.37
19112;BME280;9688;51.906;8.376;2023-04-05T11:46:50;101338.91;;;11.35;41.73
19112;BME280;9688;51.906;8.376;2023-04-05T11:49:36;101331.66;;;11.42;40.99
19112;BME280;9688;51.906;8.376;2023-04-05T11:52:24;101339.88;;;11.33;41.91
19112;BME280;9688;51.906;8.376;2023-04-05T11:55:11;101331.34;;;11.23;40.85
19112;BME280;9688;51.906;8.376;2023-04-05T11:57:59;101328.25;;;11.09;41.16
19112;BME280;9688;51.906;8.376;2023-04-05T12:00:56;101333.47;;;11.10;41.41
19112;BME280;9688;51.906;8.376;2023-04-05T12:03:43;101329.22;;;11.05;41.38
19112;BME280;9688;51.906;8.376;2023-04-05T12:06:30;101320.91;;;10.87;41.41
19112;BME280;9688;51.906;8.376;2023-04-05T12:09:19;101313.56;;;10.66;41.16
19112;BME280;9688;51.906;8.376;2023-04-05T12:12:15;101308.59;;;10.55;42.26
19112;BME280;9688;51.906;8.376;2023-04-05T12:15:03;101312.50;;;10.73;42.16
19112;BME280;9688;51.906;8.376;2023-04-05T12:17:51;101317.97;;;10.98;41.70
19112;BME280;9688;51.906;8.376;2023-04-05T12:20:38;101308.53;;;11.19;40.64
19112;BME280;9688;51.906;8.376;2023-04-05T12:23:25;101298.25;;;11.38;41.19
19112;BME280;9688;51.906;8.376;2023-04-05T12:26:14;101301.22;;;11.55;40.90
19112;BME280;9688;51.906;8.376;2023-04-05T12:29:03;101291.19;;;11.67;39.77
19112;BME280;9688;51.906;8.376;2023-04-05T12:31:50;101288.16;;;11.77;39.95
19112;BME280;9688;51.906;8.376;2023-04-05T12:34:46;101296.81;;;11.82;39.27
19112;BME280;9688;51.906;8.376;2023-04-05T12:37:33;101282.88;;;11.77;39.66
19112;BME280;9688;51.906;8.376;2023-04-05T12:40:20;101283.69;;;11.79;38.88
19112;BME280;9688;51.906;8.376;2023-04-05T12:43:08;101282.28;;;11.96;38.96
19112;BME280;9688;51.906;8.376;2023-04-05T12:45:54;101278.34;;;12.08;38.27
19112;BME280;9688;51.906;8.376;2023-04-05T12:48:40;101276.53;;;12.10;38.47
19112;BME280;9688;51.906;8.376;2023-04-05T12:51:30;101274.00;;;12.07;39.01
19112;BME280;9688;51.906;8.376;2023-04-05T12:54:21;101275.88;;;12.03;38.87
19112;BME280;9688;51.906;8.376;2023-04-05T12:57:10;101276.78;;;12.02;38.98
19112;BME280;9688;51.906;8.376;2023-04-05T13:00:00;101266.28;;;11.99;39.07
19112;BME280;9688;51.906;8.376;2023-04-05T13:02:51;101268.47;;;12.13;38.68
19112;BME280;9688;51.906;8.376;2023-04-05T13:05:37;101265.44;;;12.23;38.71
19112;BME280;9688;51.906;8.376;2023-04-05T13:08:24;101261.56;;;12.34;38.68
19112;BME280;9688;51.906;8.376;2023-04-05T13:11:11;101270.38;;;12.34;38.28
19112;BME280;9688;51.906;8.376;2023-04-05T13:13:57;101262.28;;;12.39;37.82
19112;BME280;9688;51.906;8.376;2023-04-05T13:16:44;101260.16;;;12.23;37.59
19112;BME280;9688;51.906;8.376;2023-04-05T13:19:30;101262.63;;;12.03;37.91
19112;BME280;9688;51.906;8.376;2023-04-05T13:22:15;101256.38;;;12.05;37.78
19112;BME280;9688;51.906;8.376;2023-04-05T13:25:02;101258.41;;;11.97;38.86
19112;BME280;9688;51.906;8.376;2023-04-05T13:27:48;101252.31;;;11.94;37.69
19112;BME280;9688;51.906;8.376;2023-04-05T13:30:34;101247.84;;;11.96;37.62
19112;BME280;9688;51.906;8.376;2023-04-05T13:33:22;101242.94;;;12.10;38.29
19112;BME280;9688;51.906;8.376;2023-04-05T13:36:08;101237.03;;;12.27;37.28
19112;BME280;9688;51.906;8.376;2023-04-05T13:38:55;101237.47;;;12.40;37.28
19112;BME280;9688;51.906;8.376;2023-04-05T13:41:41;101228.88;;;12.58;36.35
19112;BME280;9688;51.906;8.376;2023-04-05T13:44:27;101230.88;;;12.75;36.87
19112;BME280;9688;51.906;8.376;2023-04-05T13:47:15;101228.84;;;12.82;36.54
19112;BME280;9688;51.906;8.376;2023-04-05T13:50:07;101224.59;;;12.78;36.16
19112;BME280;9688;51.906;8.376;2023-04-05T13:52:52;101222.59;;;12.83;36.07
19112;BME280;9688;51.906;8.376;2023-04-05T13:55:38;101215.28;;;12.89;35.89
19112;BME280;9688;51.906;8.376;2023-04-05T13:58:24;101218.44;;;12.99;36.03
19112;BME280;9688;51.906;8.376;2023-04-05T14:01:09;101224.56;;;13.01;36.08
19112;BME280;9688;51.906;8.376;2023-04-05T14:03:57;101214.06;;;12.98;36.02
19112;BME280;9688;51.906;8.376;2023-04-05T14:06:44;101213.13;;;12.99;35.50
19112;BME280;9688;51.906;8.376;2023-04-05T14:09:30;101202.31;;;13.05;35.59
19112;BME280;9688;51.906;8.376;2023-04-05T14:12:16;101204.16;;;13.03;35.64
19112;BME280;9688;51.906;8.376;2023-04-05T14:15:03;101198.75;;;13.05;35.97
19112;BME280;9688;51.906;8.376;2023-04-05T14:17:49;101203.03;;;13.09;36.08
19112;BME280;9688;51.906;8.376;2023-04-05T14:20:35;101189.81;;;13.07;35.68
19112;BME280;9688;51.906;8.376;2023-04-05T14:23:23;101185.72;;;12.99;35.60
19112;BME280;9688;51.906;8.376;2023-04-05T14:26:10;101190.56;;;12.89;36.34
19112;BME280;9688;51.906;8.376;2023-04-05T14:28:56;101185.03;;;12.93;35.80
19112;BME280;9688;51.906;8.376;2023-04-05T14:31:42;101177.66;;;13.02;36.36
19112;BME280;9688;51.906;8.376;2023-04-05T14:34:28;101177.41;;;13.08;36.03
19112;BME280;9688;51.906;8.376;2023-04-05T14:37:15;101171.06;;;13.12;35.42
19112;BME280;9688;51.906;8.376;2023-04-05T14:40:07;101167.66;;;13.08;35.07
19112;BME280;9688;51.906;8.376;2023-04-05T14:42:54;101168.22;;;13.16;35.53
19112;BME280;9688;51.906;8.376;2023-04-05T14:45:40;101163.56;;;13.22;35.84
19112;BME280;9688;51.906;8.376;2023-04-05T14:48:26;101173.41;;;13.20;35.31
19112;BME280;9688;51.906;8.376;2023-04-05T14:51:13;101159.19;;;12.99;35.68
19112;BME280;9688;51.906;8.376;2023-04-05T14:54:02;101158.81;;;12.64;35.81
19112;BME280;9688;51.906;8.376;2023-04-05T14:56:52;101155.34;;;12.62;35.81